GLET03 YSNW-YWLM
Flight info
| Callsign | GLET03 |
|---|---|
| Flight time | N/A |
| Altitude | 7000 |
| Route | NWA DCT JIBN DCT LRF DCT WLM |
| Aircraft | H60/M-SDFHITUY/C |
Departure
| Time | 2026-05-01 09:33 |
|---|---|
| Airport | Naval Air Station Nowra - HMAS Albatross (YSNW) |
Arrival
| Time | N/A |
|---|---|
| Airport | Newcastle Airport (YWLM) |
| Time | Latitude | Longitude | Altitude | Speed | Heading |
|---|---|---|---|---|---|
| 2026-05-01 09:15 | -34.94375 | 150.53597 | 360 ft | 0 kts | 225° |
| 2026-05-01 09:27 | -34.94406 | 150.53587 | 358 ft | 6 kts | 136° |
| 2026-05-01 09:27 | -34.94426 | 150.53587 | 358 ft | 6 kts | 224° |
| 2026-05-01 09:27 | -34.94491 | 150.53511 | 358 ft | 13 kts | 224° |
| 2026-05-01 09:28 | -34.94554 | 150.53435 | 361 ft | 12 kts | 224° |
| 2026-05-01 09:28 | -34.94594 | 150.53400 | 358 ft | 9 kts | 189° |
| 2026-05-01 09:28 | -34.94634 | 150.53395 | 362 ft | 5 kts | 183° |
| 2026-05-01 09:28 | -34.94665 | 150.53392 | 361 ft | 4 kts | 185° |
| 2026-05-01 09:29 | -34.94748 | 150.53392 | 362 ft | 6 kts | 133° |
| 2026-05-01 09:29 | -34.94757 | 150.53440 | 363 ft | 7 kts | 94° |
| 2026-05-01 09:30 | -34.94758 | 150.53468 | 363 ft | 0 kts | 94° |
| 2026-05-01 09:32 | -34.94758 | 150.53466 | 365 ft | 5 kts | 98° |
| 2026-05-01 09:32 | -34.94751 | 150.53356 | 416 ft | 17 kts | 275° |
| 2026-05-01 09:32 | -34.94739 | 150.53086 | 522 ft | 42 kts | 275° |
| 2026-05-01 09:33 | -34.94654 | 150.52791 | 672 ft | 42 kts | 336° |
| 2026-05-01 09:33 | -34.94322 | 150.52951 | 907 ft | 60 kts | 46° |
| 2026-05-01 09:33 | -34.93428 | 150.53816 | 1012 ft | 96 kts | 42° |
| 2026-05-01 09:34 | -34.92952 | 150.54351 | 1095 ft | 93 kts | 43° |
| 2026-05-01 09:34 | -34.92474 | 150.54895 | 983 ft | 94 kts | 43° |
| 2026-05-01 09:34 | -34.91589 | 150.56090 | 964 ft | 97 kts | 67° |
| 2026-05-01 09:35 | -34.91302 | 150.56867 | 974 ft | 102 kts | 73° |
| 2026-05-01 09:35 | -34.91002 | 150.58516 | 980 ft | 101 kts | 80° |
| 2026-05-01 09:35 | -34.90918 | 150.59363 | 983 ft | 100 kts | 82° |
| 2026-05-01 09:36 | -34.90971 | 150.60184 | 988 ft | 96 kts | 112° |
| 2026-05-01 09:36 | -34.91322 | 150.60981 | 987 ft | 110 kts | 113° |
| 2026-05-01 09:36 | -34.91344 | 150.61826 | 977 ft | 100 kts | 60° |
| 2026-05-01 09:36 | -34.90797 | 150.62261 | 993 ft | 99 kts | 11° |
| 2026-05-01 09:37 | -34.90120 | 150.62466 | 996 ft | 97 kts | 14° |
| 2026-05-01 09:37 | -34.88794 | 150.62770 | 987 ft | 97 kts | 14° |
| 2026-05-01 09:37 | -34.88113 | 150.62926 | 978 ft | 104 kts | 14° |
| 2026-05-01 09:38 | -34.86640 | 150.63310 | 1090 ft | 114 kts | 14° |
| 2026-05-01 09:38 | -34.85860 | 150.63521 | 1181 ft | 117 kts | 14° |
| 2026-05-01 09:38 | -34.85052 | 150.63739 | 1182 ft | 118 kts | 15° |
| 2026-05-01 09:39 | -34.83589 | 150.64589 | 1187 ft | 117 kts | 32° |
| 2026-05-01 09:39 | -34.82901 | 150.65109 | 1189 ft | 117 kts | 32° |
| 2026-05-01 09:39 | -34.82210 | 150.65631 | 1190 ft | 117 kts | 35° |
| 2026-05-01 09:40 | -34.81580 | 150.66261 | 1194 ft | 117 kts | 49° |
| 2026-05-01 09:40 | -34.80282 | 150.67297 | 1182 ft | 117 kts | 350° |
| 2026-05-01 09:40 | -34.79483 | 150.67129 | 1196 ft | 115 kts | 1° |
| 2026-05-01 09:41 | -34.78780 | 150.67257 | 1203 ft | 106 kts | 31° |
| 2026-05-01 09:41 | -34.77217 | 150.68108 | 1195 ft | 123 kts | 29° |
| 2026-05-01 09:41 | -34.76630 | 150.68606 | 1189 ft | 117 kts | 39° |
| 2026-05-01 09:42 | -34.76113 | 150.68892 | 1232 ft | 73 kts | 304° |
| 2026-05-01 09:42 | -34.75664 | 150.68644 | 1201 ft | 101 kts | 313° |
| 2026-05-01 09:42 | -34.76050 | 150.66842 | 1173 ft | 153 kts | 197° |
| 2026-05-01 09:43 | -34.78072 | 150.67140 | 1233 ft | 106 kts | 226° |
| 2026-05-01 09:43 | -34.78503 | 150.66782 | 1190 ft | 71 kts | 289° |
| 2026-05-01 09:43 | -34.78364 | 150.66089 | 1172 ft | 117 kts | 314° |
| 2026-05-01 09:44 | -34.78178 | 150.65718 | 1270 ft | 130 kts | 312° |